sensor_id;sensor_type;location;lat;lon;timestamp;pressure;altitude;pressure_sealevel;temperature;humidity
60920;BME280;59039;52.108;19.942;2023-04-04T00:01:41;101631.54;;;0.35;63.31
60920;BME280;59039;52.108;19.942;2023-04-04T00:04:06;101630.41;;;0.32;63.14
60920;BME280;59039;52.108;19.942;2023-04-04T00:06:32;101631.55;;;0.30;63.24
60920;BME280;59039;52.108;19.942;2023-04-04T00:09:00;101627.30;;;0.29;63.23
60920;BME280;59039;52.108;19.942;2023-04-04T00:11:26;101632.18;;;0.32;63.32
60920;BME280;59039;52.108;19.942;2023-04-04T00:13:51;101630.20;;;0.33;63.53
60920;BME280;59039;52.108;19.942;2023-04-04T00:16:16;101630.02;;;0.33;63.81
60920;BME280;59039;52.108;19.942;2023-04-04T00:18:42;101629.48;;;0.32;63.86
60920;BME280;59039;52.108;19.942;2023-04-04T00:21:07;101629.86;;;0.32;63.93
60920;BME280;59039;52.108;19.942;2023-04-04T00:23:35;101628.83;;;0.31;64.08
60920;BME280;59039;52.108;19.942;2023-04-04T00:26:01;101624.33;;;0.28;64.33
60920;BME280;59039;52.108;19.942;2023-04-04T00:28:26;101619.81;;;0.24;64.37
60920;BME280;59039;52.108;19.942;2023-04-04T00:30:53;101619.89;;;0.23;64.30
60920;BME280;59039;52.108;19.942;2023-04-04T00:33:21;101612.11;;;0.21;64.24
60920;BME280;59039;52.108;19.942;2023-04-04T00:35:47;101612.17;;;0.19;64.47
60920;BME280;59039;52.108;19.942;2023-04-04T00:38:15;101610.60;;;0.18;64.56
60920;BME280;59039;52.108;19.942;2023-04-04T00:40:46;101604.72;;;0.18;64.43
60920;BME280;59039;52.108;19.942;2023-04-04T00:43:14;101602.56;;;0.18;64.71
60920;BME280;59039;52.108;19.942;2023-04-04T00:45:42;101601.38;;;0.17;64.75
60920;BME280;59039;52.108;19.942;2023-04-04T00:48:08;101597.38;;;0.15;64.92
60920;BME280;59039;52.108;19.942;2023-04-04T00:50:33;101594.75;;;0.14;64.94
60920;BME280;59039;52.108;19.942;2023-04-04T00:52:59;101594.34;;;0.15;64.97
60920;BME280;59039;52.108;19.942;2023-04-04T00:55:24;101587.39;;;0.15;64.93
60920;BME280;59039;52.108;19.942;2023-04-04T00:57:50;101582.36;;;0.15;64.90
60920;BME280;59039;52.108;19.942;2023-04-04T01:00:16;101583.73;;;0.17;64.97
60920;BME280;59039;52.108;19.942;2023-04-04T01:02:52;101576.86;;;0.20;64.76
60920;BME280;59039;52.108;19.942;2023-04-04T01:05:17;101576.45;;;0.21;64.91
60920;BME280;59039;52.108;19.942;2023-04-04T01:07:43;101578.93;;;0.22;65.04
60920;BME280;59039;52.108;19.942;2023-04-04T01:10:09;101577.18;;;0.21;65.13
60920;BME280;59039;52.108;19.942;2023-04-04T01:12:35;101574.73;;;0.19;64.75
60920;BME280;59039;52.108;19.942;2023-04-04T01:15:01;101571.46;;;0.16;65.21
60920;BME280;59039;52.108;19.942;2023-04-04T01:17:26;101568.21;;;0.13;65.12
60920;BME280;59039;52.108;19.942;2023-04-04T01:22:42;101565.79;;;0.07;65.55
60920;BME280;59039;52.108;19.942;2023-04-04T01:25:10;101566.23;;;0.05;65.45
60920;BME280;59039;52.108;19.942;2023-04-04T01:27:38;101569.13;;;0.04;65.32
60920;BME280;59039;52.108;19.942;2023-04-04T01:30:04;101565.70;;;0.04;65.37
60920;BME280;59039;52.108;19.942;2023-04-04T01:33:00;101565.70;;;0.04;65.15
60920;BME280;59039;52.108;19.942;2023-04-04T01:35:45;101561.20;;;0.01;65.14
60920;BME280;59039;52.108;19.942;2023-04-04T01:40:51;101560.98;;;-0.03;65.07
60920;BME280;59039;52.108;19.942;2023-04-04T01:43:19;101559.97;;;-0.05;65.36
60920;BME280;59039;52.108;19.942;2023-04-04T01:45:45;101554.38;;;-0.07;64.98
60920;BME280;59039;52.108;19.942;2023-04-04T01:48:15;101554.58;;;-0.08;65.09
60920;BME280;59039;52.108;19.942;2023-04-04T01:50:46;101552.98;;;-0.08;65.05
60920;BME280;59039;52.108;19.942;2023-04-04T01:53:11;101551.85;;;-0.11;65.16
60920;BME280;59039;52.108;19.942;2023-04-04T01:55:39;101551.62;;;-0.14;65.70
60920;BME280;59039;52.108;19.942;2023-04-04T01:58:05;101551.73;;;-0.17;65.61
60920;BME280;59039;52.108;19.942;2023-04-04T02:00:33;101551.14;;;-0.20;65.30
60920;BME280;59039;52.108;19.942;2023-04-04T02:02:58;101551.02;;;-0.22;65.74
60920;BME280;59039;52.108;19.942;2023-04-04T02:05:24;101552.86;;;-0.24;65.78
60920;BME280;59039;52.108;19.942;2023-04-04T02:07:49;101553.17;;;-0.27;65.94
60920;BME280;59039;52.108;19.942;2023-04-04T02:10:15;101555.60;;;-0.30;66.03
60920;BME280;59039;52.108;19.942;2023-04-04T02:12:40;101556.02;;;-0.31;66.00
60920;BME280;59039;52.108;19.942;2023-04-04T02:15:06;101552.20;;;-0.34;65.83
60920;BME280;59039;52.108;19.942;2023-04-04T02:17:32;101551.38;;;-0.36;66.04
60920;BME280;59039;52.108;19.942;2023-04-04T02:19:57;101552.66;;;-0.37;65.96
60920;BME280;59039;52.108;19.942;2023-04-04T02:22:23;101550.27;;;-0.40;66.32
60920;BME280;59039;52.108;19.942;2023-04-04T02:24:48;101546.98;;;-0.42;66.26
60920;BME280;59039;52.108;19.942;2023-04-04T02:27:14;101545.65;;;-0.45;66.72
60920;BME280;59039;52.108;19.942;2023-04-04T02:29:39;101545.55;;;-0.47;66.73
60920;BME280;59039;52.108;19.942;2023-04-04T02:32:04;101543.66;;;-0.49;66.55
60920;BME280;59039;52.108;19.942;2023-04-04T02:34:30;101543.54;;;-0.50;66.49
60920;BME280;59039;52.108;19.942;2023-04-04T02:36:55;101544.33;;;-0.53;66.59
60920;BME280;59039;52.108;19.942;2023-04-04T02:39:21;101548.85;;;-0.55;66.62
60920;BME280;59039;52.108;19.942;2023-04-04T02:41:46;101547.13;;;-0.56;66.63
60920;BME280;59039;52.108;19.942;2023-04-04T02:44:14;101547.87;;;-0.57;66.56
60920;BME280;59039;52.108;19.942;2023-04-04T02:46:40;101547.53;;;-0.57;66.81
60920;BME280;59039;52.108;19.942;2023-04-04T02:49:05;101547.06;;;-0.59;66.81
60920;BME280;59039;52.108;19.942;2023-04-04T02:51:31;101545.45;;;-0.59;66.49
60920;BME280;59039;52.108;19.942;2023-04-04T02:53:59;101544.59;;;-0.60;66.26
60920;BME280;59039;52.108;19.942;2023-04-04T02:56:28;101548.16;;;-0.60;66.51
60920;BME280;59039;52.108;19.942;2023-04-04T02:58:53;101550.50;;;-0.61;66.53
60920;BME280;59039;52.108;19.942;2023-04-04T03:01:21;101552.17;;;-0.62;66.75
60920;BME280;59039;52.108;19.942;2023-04-04T03:03:49;101551.85;;;-0.64;66.40
60920;BME280;59039;52.108;19.942;2023-04-04T03:06:18;101550.14;;;-0.66;66.98
60920;BME280;59039;52.108;19.942;2023-04-04T03:08:49;101550.38;;;-0.68;67.13
60920;BME280;59039;52.108;19.942;2023-04-04T03:11:18;101550.96;;;-0.69;66.82
60920;BME280;59039;52.108;19.942;2023-04-04T03:13:43;101551.73;;;-0.70;67.04
60920;BME280;59039;52.108;19.942;2023-04-04T03:16:09;101555.02;;;-0.73;67.16
60920;BME280;59039;52.108;19.942;2023-04-04T03:18:34;101557.21;;;-0.74;66.63
60920;BME280;59039;52.108;19.942;2023-04-04T03:21:00;101557.05;;;-0.75;66.75
60920;BME280;59039;52.108;19.942;2023-04-04T03:23:25;101552.48;;;-0.77;66.69
60920;BME280;59039;52.108;19.942;2023-04-04T03:25:51;101558.93;;;-0.78;66.78
60920;BME280;59039;52.108;19.942;2023-04-04T03:28:16;101559.20;;;-0.80;67.07
60920;BME280;59039;52.108;19.942;2023-04-04T03:30:42;101557.21;;;-0.84;67.14
60920;BME280;59039;52.108;19.942;2023-04-04T03:33:07;101554.80;;;-0.87;67.00
60920;BME280;59039;52.108;19.942;2023-04-04T03:35:39;101555.54;;;-0.87;66.96
60920;BME280;59039;52.108;19.942;2023-04-04T03:38:08;101552.91;;;-0.89;67.47
60920;BME280;59039;52.108;19.942;2023-04-04T03:40:34;101548.23;;;-0.92;67.51
60920;BME280;59039;52.108;19.942;2023-04-04T03:43:00;101549.42;;;-0.96;67.59
60920;BME280;59039;52.108;19.942;2023-04-04T03:45:25;101547.67;;;-0.97;67.23
60920;BME280;59039;52.108;19.942;2023-04-04T03:47:50;101544.95;;;-1.00;67.57
60920;BME280;59039;52.108;19.942;2023-04-04T03:50:16;101545.81;;;-1.05;67.74
60920;BME280;59039;52.108;19.942;2023-04-04T03:52:47;101547.14;;;-1.07;67.66
60920;BME280;59039;52.108;19.942;2023-04-04T03:55:12;101546.16;;;-1.10;68.18
60920;BME280;59039;52.108;19.942;2023-04-04T03:57:38;101544.48;;;-1.12;67.58
60920;BME280;59039;52.108;19.942;2023-04-04T04:00:04;101545.60;;;-1.14;67.98
60920;BME280;59039;52.108;19.942;2023-04-04T04:02:29;101546.02;;;-1.16;68.21
60920;BME280;59039;52.108;19.942;2023-04-04T04:04:55;101544.85;;;-1.18;68.46
60920;BME280;59039;52.108;19.942;2023-04-04T04:07:20;101541.73;;;-1.20;68.42
60920;BME280;59039;52.108;19.942;2023-04-04T04:09:48;101549.59;;;-1.22;68.36
60920;BME280;59039;52.108;19.942;2023-04-04T04:12:13;101547.00;;;-1.24;68.42
60920;BME280;59039;52.108;19.942;2023-04-04T04:14:39;101548.86;;;-1.26;68.08
60920;BME280;59039;52.108;19.942;2023-04-04T04:17:04;101550.89;;;-1.29;68.26
60920;BME280;59039;52.108;19.942;2023-04-04T04:19:32;101551.49;;;-1.31;68.14
60920;BME280;59039;52.108;19.942;2023-04-04T04:21:58;101550.83;;;-1.32;68.18
60920;BME280;59039;52.108;19.942;2023-04-04T04:24:23;101550.36;;;-1.34;68.48
60920;BME280;59039;52.108;19.942;2023-04-04T04:26:48;101549.02;;;-1.36;68.26
60920;BME280;59039;52.108;19.942;2023-04-04T04:29:14;101547.81;;;-1.38;68.36
60920;BME280;59039;52.108;19.942;2023-04-04T04:31:39;101548.38;;;-1.38;68.27
60920;BME280;59039;52.108;19.942;2023-04-04T04:34:05;101546.79;;;-1.39;68.57
60920;BME280;59039;52.108;19.942;2023-04-04T04:36:30;101546.66;;;-1.40;69.03
60920;BME280;59039;52.108;19.942;2023-04-04T04:38:56;101539.98;;;-1.42;69.07
60920;BME280;59039;52.108;19.942;2023-04-04T04:41:21;101538.41;;;-1.43;69.31
60920;BME280;59039;52.108;19.942;2023-04-04T04:43:47;101543.37;;;-1.42;69.68
60920;BME280;59039;52.108;19.942;2023-04-04T04:46:15;101542.48;;;-1.42;69.70
60920;BME280;59039;52.108;19.942;2023-04-04T04:48:41;101540.52;;;-1.43;69.70
60920;BME280;59039;52.108;19.942;2023-04-04T04:51:06;101543.35;;;-1.42;69.75
60920;BME280;59039;52.108;19.942;2023-04-04T04:53:39;101541.39;;;-1.42;69.79
60920;BME280;59039;52.108;19.942;2023-04-04T04:56:08;101542.26;;;-1.41;69.53
60920;BME280;59039;52.108;19.942;2023-04-04T04:58:34;101544.54;;;-1.40;69.59
60920;BME280;59039;52.108;19.942;2023-04-04T05:00:59;101543.25;;;-1.39;69.58
60920;BME280;59039;52.108;19.942;2023-04-04T05:03:27;101544.11;;;-1.38;69.56
60920;BME280;59039;52.108;19.942;2023-04-04T05:05:53;101547.08;;;-1.37;69.54
60920;BME280;59039;52.108;19.942;2023-04-04T05:08:18;101547.19;;;-1.35;69.54
60920;BME280;59039;52.108;19.942;2023-04-04T05:10:44;101546.05;;;-1.32;69.75
60920;BME280;59039;52.108;19.942;2023-04-04T05:13:09;101545.80;;;-1.31;69.64
60920;BME280;59039;52.108;19.942;2023-04-04T05:15:35;101548.24;;;-1.29;69.57
60920;BME280;59039;52.108;19.942;2023-04-04T05:18:03;101544.64;;;-1.28;69.76
60920;BME280;59039;52.108;19.942;2023-04-04T05:20:28;101546.20;;;-1.26;69.69
60920;BME280;59039;52.108;19.942;2023-04-04T05:22:54;101547.21;;;-1.25;69.73
60920;BME280;59039;52.108;19.942;2023-04-04T05:25:19;101544.87;;;-1.24;69.83
60920;BME280;59039;52.108;19.942;2023-04-04T05:27:48;101546.27;;;-1.23;69.82
60920;BME280;59039;52.108;19.942;2023-04-04T05:30:14;101546.55;;;-1.21;69.74
60920;BME280;59039;52.108;19.942;2023-04-04T05:32:39;101546.28;;;-1.18;69.89
60920;BME280;59039;52.108;19.942;2023-04-04T05:35:05;101545.66;;;-1.16;69.89
60920;BME280;59039;52.108;19.942;2023-04-04T05:37:31;101543.97;;;-1.13;69.90
60920;BME280;59039;52.108;19.942;2023-04-04T05:39:56;101545.14;;;-1.11;69.95
60920;BME280;59039;52.108;19.942;2023-04-04T05:42:21;101543.77;;;-1.07;70.08
60920;BME280;59039;52.108;19.942;2023-04-04T05:44:47;101547.49;;;-0.97;70.56
60920;BME280;59039;52.108;19.942;2023-04-04T05:47:12;101548.06;;;-0.82;70.77
60920;BME280;59039;52.108;19.942;2023-04-04T05:49:38;101548.64;;;-0.63;70.67
60920;BME280;59039;52.108;19.942;2023-04-04T05:52:05;101548.39;;;-0.42;70.76
60920;BME280;59039;52.108;19.942;2023-04-04T05:54:30;101546.09;;;-0.14;71.00
60920;BME280;59039;52.108;19.942;2023-04-04T05:57:05;101541.29;;;0.18;70.14
60920;BME280;59039;52.108;19.942;2023-04-04T05:59:33;101537.79;;;0.56;69.45
60920;BME280;59039;52.108;19.942;2023-04-04T06:02:01;101536.80;;;0.92;68.71
60920;BME280;59039;52.108;19.942;2023-04-04T06:04:26;101534.47;;;1.30;67.53
60920;BME280;59039;52.108;19.942;2023-04-04T06:06:52;101532.22;;;1.68;66.06
60920;BME280;59039;52.108;19.942;2023-04-04T06:09:17;101528.46;;;2.02;64.61
60920;BME280;59039;52.108;19.942;2023-04-04T06:11:45;101523.11;;;2.42;63.83
60920;BME280;59039;52.108;19.942;2023-04-04T06:14:13;101522.77;;;2.78;62.74
60920;BME280;59039;52.108;19.942;2023-04-04T06:16:42;101524.81;;;3.01;62.16
60920;BME280;59039;52.108;19.942;2023-04-04T06:19:07;101522.70;;;3.21;61.88
60920;BME280;59039;52.108;19.942;2023-04-04T06:21:35;101521.73;;;3.30;60.91
60920;BME280;59039;52.108;19.942;2023-04-04T06:24:03;101523.00;;;3.26;60.27
60920;BME280;59039;52.108;19.942;2023-04-04T06:26:28;101529.64;;;3.22;60.21
60920;BME280;59039;52.108;19.942;2023-04-04T06:28:54;101527.19;;;3.21;60.40
60920;BME280;59039;52.108;19.942;2023-04-04T06:31:21;101532.03;;;3.21;60.68
60920;BME280;59039;52.108;19.942;2023-04-04T06:33:49;101526.98;;;3.25;59.84
60920;BME280;59039;52.108;19.942;2023-04-04T06:36:15;101524.47;;;3.32;59.75
60920;BME280;59039;52.108;19.942;2023-04-04T06:38:46;101525.58;;;3.45;59.56
60920;BME280;59039;52.108;19.942;2023-04-04T06:41:11;101519.04;;;3.63;58.80
60920;BME280;59039;52.108;19.942;2023-04-04T06:43:37;101517.20;;;3.94;59.47
60920;BME280;59039;52.108;19.942;2023-04-04T06:46:02;101514.45;;;4.27;56.50
60920;BME280;59039;52.108;19.942;2023-04-04T06:48:28;101513.10;;;4.56;55.36
60920;BME280;59039;52.108;19.942;2023-04-04T06:50:56;101516.33;;;4.87;55.79
60920;BME280;59039;52.108;19.942;2023-04-04T06:53:22;101513.25;;;5.11;55.46
60920;BME280;59039;52.108;19.942;2023-04-04T06:55:52;101511.15;;;5.34;53.25
60920;BME280;59039;52.108;19.942;2023-04-04T06:58:18;101508.30;;;5.60;53.23
60920;BME280;59039;52.108;19.942;2023-04-04T07:00:43;101503.15;;;5.79;52.10
60920;BME280;59039;52.108;19.942;2023-04-04T07:03:08;101501.97;;;5.98;51.97
60920;BME280;59039;52.108;19.942;2023-04-04T07:05:36;101502.52;;;6.14;53.51
60920;BME280;59039;52.108;19.942;2023-04-04T07:08:02;101500.98;;;6.27;52.39
60920;BME280;59039;52.108;19.942;2023-04-04T07:10:37;101498.54;;;6.34;52.71
60920;BME280;59039;52.108;19.942;2023-04-04T07:13:23;101491.95;;;6.33;49.91
60920;BME280;59039;52.108;19.942;2023-04-04T07:15:58;101497.32;;;6.22;50.12
60920;BME280;59039;52.108;19.942;2023-04-04T07:18:24;101499.06;;;6.15;49.90
60920;BME280;59039;52.108;19.942;2023-04-04T07:20:52;101504.90;;;6.08;51.68
60920;BME280;59039;52.108;19.942;2023-04-04T07:23:23;101503.88;;;5.90;50.60
60920;BME280;59039;52.108;19.942;2023-04-04T07:25:49;101500.27;;;5.76;50.91
60920;BME280;59039;52.108;19.942;2023-04-04T07:28:16;101503.05;;;5.66;52.72
60920;BME280;59039;52.108;19.942;2023-04-04T07:31:02;101500.71;;;5.52;51.35
60920;BME280;59039;52.108;19.942;2023-04-04T07:33:40;101496.92;;;5.32;51.45
60920;BME280;59039;52.108;19.942;2023-04-04T07:36:29;101495.37;;;5.13;51.27
60920;BME280;59039;52.108;19.942;2023-04-04T07:38:57;101494.13;;;4.92;51.49
60920;BME280;59039;52.108;19.942;2023-04-04T07:41:22;101493.05;;;4.71;51.96
60920;BME280;59039;52.108;19.942;2023-04-04T07:43:57;101489.90;;;4.51;52.47
60920;BME280;59039;52.108;19.942;2023-04-04T07:46:22;101488.05;;;4.37;54.50
60920;BME280;59039;52.108;19.942;2023-04-04T07:48:47;101490.75;;;4.27;54.71
60920;BME280;59039;52.108;19.942;2023-04-04T07:51:14;101489.47;;;4.24;55.21
60920;BME280;59039;52.108;19.942;2023-04-04T07:53:39;101486.73;;;4.18;55.21
60920;BME280;59039;52.108;19.942;2023-04-04T07:56:05;101487.45;;;4.12;54.55
60920;BME280;59039;52.108;19.942;2023-04-04T07:58:34;101486.30;;;4.04;54.43
60920;BME280;59039;52.108;19.942;2023-04-04T08:01:11;101485.71;;;3.95;53.54
60920;BME280;59039;52.108;19.942;2023-04-04T08:03:39;101487.64;;;3.84;54.10
60920;BME280;59039;52.108;19.942;2023-04-04T08:06:04;101490.05;;;3.72;53.75
60920;BME280;59039;52.108;19.942;2023-04-04T08:08:30;101488.39;;;3.63;54.11
60920;BME280;59039;52.108;19.942;2023-04-04T08:10:57;101496.63;;;3.54;54.04
60920;BME280;59039;52.108;19.942;2023-04-04T08:13:23;101494.42;;;3.41;54.85
60920;BME280;59039;52.108;19.942;2023-04-04T08:15:52;101491.29;;;3.29;55.57
60920;BME280;59039;52.108;19.942;2023-04-04T08:18:17;101490.45;;;3.22;56.01
60920;BME280;59039;52.108;19.942;2023-04-04T08:20:48;101487.08;;;3.14;56.41
60920;BME280;59039;52.108;19.942;2023-04-04T08:23:13;101487.52;;;3.02;55.95
60920;BME280;59039;52.108;19.942;2023-04-04T08:25:45;101487.36;;;2.92;56.03
60920;BME280;59039;52.108;19.942;2023-04-04T08:28:11;101491.09;;;2.81;56.30
60920;BME280;59039;52.108;19.942;2023-04-04T08:30:39;101486.99;;;2.74;56.34
60920;BME280;59039;52.108;19.942;2023-04-04T08:33:07;101484.48;;;2.71;56.79
60920;BME280;59039;52.108;19.942;2023-04-04T08:35:33;101481.88;;;2.69;57.29
60920;BME280;59039;52.108;19.942;2023-04-04T08:40:36;101479.04;;;2.65;57.12
60920;BME280;59039;52.108;19.942;2023-04-04T08:43:05;101475.96;;;2.66;57.08
60920;BME280;59039;52.108;19.942;2023-04-04T08:45:31;101475.37;;;2.64;56.46
60920;BME280;59039;52.108;19.942;2023-04-04T08:48:00;101473.20;;;2.61;56.86
60920;BME280;59039;52.108;19.942;2023-04-04T08:50:28;101469.39;;;2.58;57.25
60920;BME280;59039;52.108;19.942;2023-04-04T08:52:55;101472.67;;;2.57;57.39
60920;BME280;59039;52.108;19.942;2023-04-04T08:55:27;101469.59;;;2.55;56.77
60920;BME280;59039;52.108;19.942;2023-04-04T08:57:55;101471.02;;;2.50;56.19
60920;BME280;59039;52.108;19.942;2023-04-04T09:00:21;101468.91;;;2.43;55.77
60920;BME280;59039;52.108;19.942;2023-04-04T09:02:54;101470.39;;;2.42;56.74
60920;BME280;59039;52.108;19.942;2023-04-04T09:05:25;101470.41;;;2.41;56.83
60920;BME280;59039;52.108;19.942;2023-04-04T09:07:52;101470.77;;;2.45;57.34
60920;BME280;59039;52.108;19.942;2023-04-04T09:10:17;101470.67;;;2.50;57.18
60920;BME280;59039;52.108;19.942;2023-04-04T09:12:44;101472.56;;;2.55;56.79
60920;BME280;59039;52.108;19.942;2023-04-04T09:15:10;101470.55;;;2.60;57.23
60920;BME280;59039;52.108;19.942;2023-04-04T09:17:36;101469.13;;;2.64;57.29
60920;BME280;59039;52.108;19.942;2023-04-04T09:23:03;101469.17;;;2.69;56.82
60920;BME280;59039;52.108;19.942;2023-04-04T09:25:29;101471.02;;;2.72;55.84
60920;BME280;59039;52.108;19.942;2023-04-04T09:27:59;101475.36;;;2.75;55.46
60920;BME280;59039;52.108;19.942;2023-04-04T09:30:25;101477.05;;;2.76;55.02
60920;BME280;59039;52.108;19.942;2023-04-04T09:32:51;101476.20;;;2.79;55.64
60920;BME280;59039;52.108;19.942;2023-04-04T09:35:19;101477.03;;;2.84;55.90
60920;BME280;59039;52.108;19.942;2023-04-04T09:37:44;101477.80;;;2.89;55.67
60920;BME280;59039;52.108;19.942;2023-04-04T09:40:11;101474.28;;;2.92;54.76
60920;BME280;59039;52.108;19.942;2023-04-04T09:42:38;101475.13;;;2.93;54.11
60920;BME280;59039;52.108;19.942;2023-04-04T09:45:03;101478.59;;;2.95;53.68
60920;BME280;59039;52.108;19.942;2023-04-04T09:47:29;101475.05;;;2.98;53.16
60920;BME280;59039;52.108;19.942;2023-04-04T09:49:58;101474.38;;;3.01;53.93
60920;BME280;59039;52.108;19.942;2023-04-04T09:52:24;101473.65;;;3.04;54.36
60920;BME280;59039;52.108;19.942;2023-04-04T09:55:00;101475.48;;;3.07;51.51
60920;BME280;59039;52.108;19.942;2023-04-04T09:57:30;101472.88;;;3.08;52.54
60920;BME280;59039;52.108;19.942;2023-04-04T10:00:00;101472.30;;;3.12;52.33
60920;BME280;59039;52.108;19.942;2023-04-04T10:02:26;101472.67;;;3.16;50.90
60920;BME280;59039;52.108;19.942;2023-04-04T10:04:54;101467.90;;;3.18;51.52
60920;BME280;59039;52.108;19.942;2023-04-04T10:07:19;101470.80;;;3.21;52.19
60920;BME280;59039;52.108;19.942;2023-04-04T10:09:47;101472.23;;;3.24;51.65
60920;BME280;59039;52.108;19.942;2023-04-04T10:12:59;101469.64;;;3.25;51.56
60920;BME280;59039;52.108;19.942;2023-04-04T10:15:02;101471.74;;;3.26;51.95
60920;BME280;59039;52.108;19.942;2023-04-04T10:17:46;101470.47;;;3.27;51.42
60920;BME280;59039;52.108;19.942;2023-04-04T10:20:12;101472.55;;;3.28;51.27
60920;BME280;59039;52.108;19.942;2023-04-04T10:22:39;101472.27;;;3.30;51.22
60920;BME280;59039;52.108;19.942;2023-04-04T10:25:05;101466.27;;;3.32;51.08
60920;BME280;59039;52.108;19.942;2023-04-04T10:27:31;101462.77;;;3.33;51.06
60920;BME280;59039;52.108;19.942;2023-04-04T10:30:01;101463.98;;;3.38;52.27
60920;BME280;59039;52.108;19.942;2023-04-04T10:32:37;101460.90;;;3.42;50.90
60920;BME280;59039;52.108;19.942;2023-04-04T10:35:08;101457.66;;;3.45;49.98
60920;BME280;59039;52.108;19.942;2023-04-04T10:37:43;101453.02;;;3.48;50.15
60920;BME280;59039;52.108;19.942;2023-04-04T10:40:17;101452.11;;;3.51;49.93
60920;BME280;59039;52.108;19.942;2023-04-04T10:42:50;101452.49;;;3.54;49.07
60920;BME280;59039;52.108;19.942;2023-04-04T10:45:16;101457.02;;;3.60;50.21
60920;BME280;59039;52.108;19.942;2023-04-04T10:47:42;101457.44;;;3.66;49.87
60920;BME280;59039;52.108;19.942;2023-04-04T10:50:09;101458.71;;;3.68;48.26
60920;BME280;59039;52.108;19.942;2023-04-04T10:52:36;101453.63;;;3.73;48.23
60920;BME280;59039;52.108;19.942;2023-04-04T10:55:07;101451.64;;;3.77;47.93
60920;BME280;59039;52.108;19.942;2023-04-04T10:57:38;101451.91;;;3.81;48.19
60920;BME280;59039;52.108;19.942;2023-04-04T11:00:09;101450.76;;;3.83;45.77
60920;BME280;59039;52.108;19.942;2023-04-04T11:02:56;101447.02;;;3.82;44.17
60920;BME280;59039;52.108;19.942;2023-04-04T11:05:26;101442.06;;;3.81;45.37
60920;BME280;59039;52.108;19.942;2023-04-04T11:08:03;101441.00;;;3.84;45.72
60920;BME280;59039;52.108;19.942;2023-04-04T11:10:31;101444.80;;;3.86;46.78
60920;BME280;59039;52.108;19.942;2023-04-04T11:12:57;101439.41;;;3.87;47.26
60920;BME280;59039;52.108;19.942;2023-04-04T11:15:25;101441.77;;;3.89;48.60
60920;BME280;59039;52.108;19.942;2023-04-04T11:17:54;101444.02;;;3.88;47.94
60920;BME280;59039;52.108;19.942;2023-04-04T11:20:31;101441.42;;;3.83;47.60
60920;BME280;59039;52.108;19.942;2023-04-04T11:23:02;101440.40;;;3.79;48.12
60920;BME280;59039;52.108;19.942;2023-04-04T11:25:35;101438.20;;;3.77;48.43
60920;BME280;59039;52.108;19.942;2023-04-04T11:34:06;101428.23;;;3.81;46.48
60920;BME280;59039;52.108;19.942;2023-04-04T11:39:05;101420.52;;;3.88;49.07
60920;BME280;59039;52.108;19.942;2023-04-04T11:44:18;101419.02;;;3.98;46.66
60920;BME280;59039;52.108;19.942;2023-04-04T11:46:44;101413.56;;;4.00;46.72
60920;BME280;59039;52.108;19.942;2023-04-04T11:49:10;101413.27;;;4.02;46.69
60920;BME280;59039;52.108;19.942;2023-04-04T11:51:44;101415.69;;;4.03;47.92
60920;BME280;59039;52.108;19.942;2023-04-04T11:54:14;101420.18;;;4.03;48.31
60920;BME280;59039;52.108;19.942;2023-04-04T11:56:44;101423.20;;;4.01;47.80
60920;BME280;59039;52.108;19.942;2023-04-04T11:59:10;101417.48;;;4.00;49.11
60920;BME280;59039;52.108;19.942;2023-04-04T12:01:36;101417.90;;;3.99;48.62
60920;BME280;59039;52.108;19.942;2023-04-04T12:04:03;101418.98;;;3.99;48.82
60920;BME280;59039;52.108;19.942;2023-04-04T12:06:29;101420.70;;;3.97;48.18
60920;BME280;59039;52.108;19.942;2023-04-04T12:08:55;101417.66;;;3.94;47.96
60920;BME280;59039;52.108;19.942;2023-04-04T12:11:23;101417.28;;;3.91;48.32
60920;BME280;59039;52.108;19.942;2023-04-04T12:13:49;101418.06;;;3.87;48.11
60920;BME280;59039;52.108;19.942;2023-04-04T12:16:18;101417.55;;;3.83;47.79
60920;BME280;59039;52.108;19.942;2023-04-04T12:18:44;101415.09;;;3.80;47.94
60920;BME280;59039;52.108;19.942;2023-04-04T12:21:09;101416.13;;;3.77;48.87
60920;BME280;59039;52.108;19.942;2023-04-04T12:23:35;101416.27;;;3.74;48.21
60920;BME280;59039;52.108;19.942;2023-04-04T12:26:00;101413.63;;;3.73;48.55
60920;BME280;59039;52.108;19.942;2023-04-04T12:28:27;101415.09;;;3.73;47.97
60920;BME280;59039;52.108;19.942;2023-04-04T12:30:52;101414.20;;;3.73;48.47
60920;BME280;59039;52.108;19.942;2023-04-04T12:33:17;101418.00;;;3.72;49.00
60920;BME280;59039;52.108;19.942;2023-04-04T12:35:50;101419.05;;;3.72;48.83
60920;BME280;59039;52.108;19.942;2023-04-04T12:38:16;101414.39;;;3.72;47.57
60920;BME280;59039;52.108;19.942;2023-04-04T12:40:43;101415.42;;;3.70;47.21
60920;BME280;59039;52.108;19.942;2023-04-04T12:43:15;101412.41;;;3.69;47.94
60920;BME280;59039;52.108;19.942;2023-04-04T12:45:42;101411.58;;;3.68;48.11
60920;BME280;59039;52.108;19.942;2023-04-04T12:48:10;101409.04;;;3.66;47.82
60920;BME280;59039;52.108;19.942;2023-04-04T12:50:48;101408.35;;;3.62;48.45
60920;BME280;59039;52.108;19.942;2023-04-04T12:53:27;101406.77;;;3.61;49.65
60920;BME280;59039;52.108;19.942;2023-04-04T12:55:59;101404.58;;;3.62;49.58
60920;BME280;59039;52.108;19.942;2023-04-04T12:58:26;101403.67;;;3.59;48.66
60920;BME280;59039;52.108;19.942;2023-04-04T13:00:53;101404.63;;;3.55;49.49
60920;BME280;59039;52.108;19.942;2023-04-04T13:03:23;101406.99;;;3.54;50.37
60920;BME280;59039;52.108;19.942;2023-04-04T13:05:52;101406.00;;;3.52;49.82
60920;BME280;59039;52.108;19.942;2023-04-04T13:08:17;101399.72;;;3.50;49.22
60920;BME280;59039;52.108;19.942;2023-04-04T13:13:35;101392.63;;;3.52;49.60
60920;BME280;59039;52.108;19.942;2023-04-04T13:16:01;101395.05;;;3.50;48.44